Portada
METAR-TAF:

METAR-TAF

Aeroports :

Hua Hin, Tailàndia

latitud: 12-35N, longitud: 099-57E, altitud: 5 m

Observació

L'informe es va fer fa 2 hores i 5 minuts, a les 10:00 UTC
Vent 5 kt amb direcció variable
Temperatura 27°C
Humitat 66%
Pressió 1012 hPa
Visibilitat: 8000 m
Escasses núvols a una alçada de 3000 ft

METAR: VTPH 151000Z VRB05KT 8000 FEW030 27/20 Q1012 NOSIG

Hora: 19:05 (12:05 UTC)

Pronòstic

L'informe es va fer fa 1 hora i 5 minuts, a les 11:00 UTC
Pronòstic vàlid del 15 a les 12 UTC al 16 a les 12 UTC
Vent 8 kt del Nord
Visibilitat: 9000 m
Escasses núvols a una alçada de 3000 ft

TAF: VTPH 151100Z 1512/1612 36008KT 9000 FEW030

Observacions i pronòstics meteorològics de més de 4000 aeroports (METAR i TAF).

Les estacions disponibles són els punts grocs i vermells al mapa.

Posi el ratolí al punt desitjat per veure el nom de l'estació.

Feu clic per veure les observacions i els pronòstics meteorològics.

Per canviar el mapa: feu clic els botons verds amb una creu de color negre per apropar; al botó verd amb un guió per allunyar la imatge; o en les fletxes verdes per a mapes adjacents.


METAR-TAF: